sensor_id;sensor_type;location;lat;lon;timestamp;temperature;humidity
27114;DHT22;14648;49.730;8.614;2023-02-08T00:01:24;-0.90;44.40
27114;DHT22;14648;49.730;8.614;2023-02-08T00:03:51;-1.00;44.30
27114;DHT22;14648;49.730;8.614;2023-02-08T00:06:17;-1.00;44.40
27114;DHT22;14648;49.730;8.614;2023-02-08T00:08:43;-1.00;44.40
27114;DHT22;14648;49.730;8.614;2023-02-08T00:11:10;-1.00;44.40
27114;DHT22;14648;49.730;8.614;2023-02-08T00:13:37;-1.00;44.40
27114;DHT22;14648;49.730;8.614;2023-02-08T00:16:04;-1.10;44.40
27114;DHT22;14648;49.730;8.614;2023-02-08T00:18:30;-1.10;44.50
27114;DHT22;14648;49.730;8.614;2023-02-08T00:20:56;-1.10;44.50
27114;DHT22;14648;49.730;8.614;2023-02-08T00:23:23;-1.10;45.30
27114;DHT22;14648;49.730;8.614;2023-02-08T00:25:49;-1.10;44.60
27114;DHT22;14648;49.730;8.614;2023-02-08T00:28:16;-1.10;44.60
27114;DHT22;14648;49.730;8.614;2023-02-08T00:30:42;-1.10;45.30
27114;DHT22;14648;49.730;8.614;2023-02-08T00:33:09;-1.10;44.60
27114;DHT22;14648;49.730;8.614;2023-02-08T00:35:35;-1.10;44.60
27114;DHT22;14648;49.730;8.614;2023-02-08T00:38:01;-1.20;44.60
27114;DHT22;14648;49.730;8.614;2023-02-08T00:40:27;-1.20;44.60
27114;DHT22;14648;49.730;8.614;2023-02-08T00:42:53;-1.20;44.60
27114;DHT22;14648;49.730;8.614;2023-02-08T00:45:19;-1.20;44.60
27114;DHT22;14648;49.730;8.614;2023-02-08T00:47:44;-1.20;44.60
27114;DHT22;14648;49.730;8.614;2023-02-08T00:50:10;-1.20;44.70
27114;DHT22;14648;49.730;8.614;2023-02-08T00:52:36;-1.20;45.40
27114;DHT22;14648;49.730;8.614;2023-02-08T00:55:03;-1.20;44.70
27114;DHT22;14648;49.730;8.614;2023-02-08T00:57:31;-1.30;44.70
27114;DHT22;14648;49.730;8.614;2023-02-08T00:59:57;-1.30;44.80
27114;DHT22;14648;49.730;8.614;2023-02-08T01:02:23;-1.30;44.80
27114;DHT22;14648;49.730;8.614;2023-02-08T01:04:49;-1.30;44.80
27114;DHT22;14648;49.730;8.614;2023-02-08T01:07:15;-1.30;44.80
27114;DHT22;14648;49.730;8.614;2023-02-08T01:09:41;-1.30;44.80
27114;DHT22;14648;49.730;8.614;2023-02-08T01:12:07;-1.30;44.80
27114;DHT22;14648;49.730;8.614;2023-02-08T01:14:33;-1.40;44.60
27114;DHT22;14648;49.730;8.614;2023-02-08T01:16:58;-1.40;44.70
27114;DHT22;14648;49.730;8.614;2023-02-08T01:19:24;-1.40;44.80
27114;DHT22;14648;49.730;8.614;2023-02-08T01:21:50;-1.40;44.90
27114;DHT22;14648;49.730;8.614;2023-02-08T01:24:16;-1.40;44.90
27114;DHT22;14648;49.730;8.614;2023-02-08T01:26:42;-1.40;44.80
27114;DHT22;14648;49.730;8.614;2023-02-08T01:29:08;-1.40;44.80
27114;DHT22;14648;49.730;8.614;2023-02-08T01:31:37;-1.40;44.70
27114;DHT22;14648;49.730;8.614;2023-02-08T01:34:06;-1.50;44.90
27114;DHT22;14648;49.730;8.614;2023-02-08T01:36:33;-1.50;44.90
27114;DHT22;14648;49.730;8.614;2023-02-08T01:39:00;-1.50;44.90
27114;DHT22;14648;49.730;8.614;2023-02-08T01:41:29;-1.50;44.90
27114;DHT22;14648;49.730;8.614;2023-02-08T01:44:03;-1.60;44.80
27114;DHT22;14648;49.730;8.614;2023-02-08T01:46:52;-1.60;44.80
27114;DHT22;14648;49.730;8.614;2023-02-08T01:49:19;-1.60;44.80
27114;DHT22;14648;49.730;8.614;2023-02-08T01:51:55;-1.60;44.90
27114;DHT22;14648;49.730;8.614;2023-02-08T01:54:35;-1.60;44.90
27114;DHT22;14648;49.730;8.614;2023-02-08T01:57:06;-1.60;44.90
27114;DHT22;14648;49.730;8.614;2023-02-08T01:59:43;-1.60;44.90
27114;DHT22;14648;49.730;8.614;2023-02-08T02:02:13;-1.70;44.90
27114;DHT22;14648;49.730;8.614;2023-02-08T02:04:41;-1.70;45.00
27114;DHT22;14648;49.730;8.614;2023-02-08T02:07:08;-1.70;45.00
27114;DHT22;14648;49.730;8.614;2023-02-08T02:09:48;-1.70;44.90
27114;DHT22;14648;49.730;8.614;2023-02-08T02:12:37;-1.80;44.90
27114;DHT22;14648;49.730;8.614;2023-02-08T02:15:04;-1.80;45.00
27114;DHT22;14648;49.730;8.614;2023-02-08T02:17:31;-1.80;44.90
27114;DHT22;14648;49.730;8.614;2023-02-08T02:20:13;-1.80;44.90
27114;DHT22;14648;49.730;8.614;2023-02-08T02:23:15;-1.80;44.90
27114;DHT22;14648;49.730;8.614;2023-02-08T02:28:54;-1.80;44.80
27114;DHT22;14648;49.730;8.614;2023-02-08T02:31:51;-1.80;44.80
27114;DHT22;14648;49.730;8.614;2023-02-08T02:34:44;-1.80;44.80
27114;DHT22;14648;49.730;8.614;2023-02-08T02:40:21;-1.90;44.90
27114;DHT22;14648;49.730;8.614;2023-02-08T02:54:52;-2.00;44.80
27114;DHT22;14648;49.730;8.614;2023-02-08T02:57:28;-2.00;44.80
27114;DHT22;14648;49.730;8.614;2023-02-08T02:59:57;-2.00;44.80
27114;DHT22;14648;49.730;8.614;2023-02-08T03:02:25;-2.00;44.80
27114;DHT22;14648;49.730;8.614;2023-02-08T03:04:56;-2.00;44.90
27114;DHT22;14648;49.730;8.614;2023-02-08T03:07:36;-2.00;44.90
27114;DHT22;14648;49.730;8.614;2023-02-08T03:10:50;-2.00;45.00
27114;DHT22;14648;49.730;8.614;2023-02-08T03:16:39;-2.00;44.90
27114;DHT22;14648;49.730;8.614;2023-02-08T03:22:02;-2.10;44.90
27114;DHT22;14648;49.730;8.614;2023-02-08T03:24:48;-2.10;45.00
27114;DHT22;14648;49.730;8.614;2023-02-08T03:27:36;-2.10;45.00
27114;DHT22;14648;49.730;8.614;2023-02-08T03:30:13;-2.10;45.10
27114;DHT22;14648;49.730;8.614;2023-02-08T03:32:49;-2.10;45.00
27114;DHT22;14648;49.730;8.614;2023-02-08T03:35:30;-2.20;45.00
27114;DHT22;14648;49.730;8.614;2023-02-08T03:38:06;-2.20;45.00
27114;DHT22;14648;49.730;8.614;2023-02-08T03:40:37;-2.10;45.10
27114;DHT22;14648;49.730;8.614;2023-02-08T03:43:15;-2.20;44.90
27114;DHT22;14648;49.730;8.614;2023-02-08T03:46:14;-2.20;45.00
27114;DHT22;14648;49.730;8.614;2023-02-08T03:48:46;-2.20;45.00
27114;DHT22;14648;49.730;8.614;2023-02-08T03:51:16;-2.20;44.90
27114;DHT22;14648;49.730;8.614;2023-02-08T03:53:43;-2.30;45.10
27114;DHT22;14648;49.730;8.614;2023-02-08T03:56:15;-2.30;45.10
27114;DHT22;14648;49.730;8.614;2023-02-08T03:58:47;-2.30;45.20
27114;DHT22;14648;49.730;8.614;2023-02-08T04:01:26;-2.30;45.20
27114;DHT22;14648;49.730;8.614;2023-02-08T04:03:55;-2.30;45.20
27114;DHT22;14648;49.730;8.614;2023-02-08T04:06:21;-2.30;45.10
27114;DHT22;14648;49.730;8.614;2023-02-08T04:08:47;-2.30;45.30
27114;DHT22;14648;49.730;8.614;2023-02-08T04:11:14;-2.30;45.30
27114;DHT22;14648;49.730;8.614;2023-02-08T04:13:39;-2.30;45.30
27114;DHT22;14648;49.730;8.614;2023-02-08T04:16:05;-2.40;45.20
27114;DHT22;14648;49.730;8.614;2023-02-08T04:18:31;-2.40;45.30
27114;DHT22;14648;49.730;8.614;2023-02-08T04:20:57;-2.40;45.30
27114;DHT22;14648;49.730;8.614;2023-02-08T04:23:22;-2.40;45.40
27114;DHT22;14648;49.730;8.614;2023-02-08T04:25:48;-2.50;45.40
27114;DHT22;14648;49.730;8.614;2023-02-08T04:28:14;-2.40;45.40
27114;DHT22;14648;49.730;8.614;2023-02-08T04:30:40;-2.40;45.50
27114;DHT22;14648;49.730;8.614;2023-02-08T04:33:05;-2.50;45.40
27114;DHT22;14648;49.730;8.614;2023-02-08T04:35:31;-2.50;45.50
27114;DHT22;14648;49.730;8.614;2023-02-08T04:37:57;-2.50;45.40
27114;DHT22;14648;49.730;8.614;2023-02-08T04:40:23;-2.50;45.40
27114;DHT22;14648;49.730;8.614;2023-02-08T04:42:49;-2.50;45.40
27114;DHT22;14648;49.730;8.614;2023-02-08T04:45:14;-2.50;45.60
27114;DHT22;14648;49.730;8.614;2023-02-08T04:47:40;-2.50;45.60
27114;DHT22;14648;49.730;8.614;2023-02-08T04:50:06;-2.50;45.70
27114;DHT22;14648;49.730;8.614;2023-02-08T04:52:32;-2.50;45.70
27114;DHT22;14648;49.730;8.614;2023-02-08T04:54:57;-2.50;45.70
27114;DHT22;14648;49.730;8.614;2023-02-08T04:57:23;-2.40;45.70
27114;DHT22;14648;49.730;8.614;2023-02-08T04:59:49;-2.50;45.60
27114;DHT22;14648;49.730;8.614;2023-02-08T05:02:14;-2.40;45.60
27114;DHT22;14648;49.730;8.614;2023-02-08T05:04:40;-2.40;45.50
27114;DHT22;14648;49.730;8.614;2023-02-08T05:07:05;-2.40;45.50
27114;DHT22;14648;49.730;8.614;2023-02-08T05:09:31;-2.30;45.60
27114;DHT22;14648;49.730;8.614;2023-02-08T05:11:58;-2.40;45.50
27114;DHT22;14648;49.730;8.614;2023-02-08T05:14:23;-2.30;45.70
27114;DHT22;14648;49.730;8.614;2023-02-08T05:16:49;-2.30;45.80
27114;DHT22;14648;49.730;8.614;2023-02-08T05:19:15;-2.30;45.90
27114;DHT22;14648;49.730;8.614;2023-02-08T05:21:40;-2.40;45.90
27114;DHT22;14648;49.730;8.614;2023-02-08T05:24:06;-2.40;45.90
27114;DHT22;14648;49.730;8.614;2023-02-08T05:26:33;-2.40;46.00
27114;DHT22;14648;49.730;8.614;2023-02-08T05:28:58;-2.40;46.10
27114;DHT22;14648;49.730;8.614;2023-02-08T05:31:24;-2.40;46.10
27114;DHT22;14648;49.730;8.614;2023-02-08T05:33:51;-2.40;46.10
27114;DHT22;14648;49.730;8.614;2023-02-08T05:36:18;-2.40;46.10
27114;DHT22;14648;49.730;8.614;2023-02-08T05:38:44;-2.40;46.10
27114;DHT22;14648;49.730;8.614;2023-02-08T05:41:10;-2.30;46.30
27114;DHT22;14648;49.730;8.614;2023-02-08T05:43:36;-2.40;46.20
27114;DHT22;14648;49.730;8.614;2023-02-08T05:46:02;-2.30;46.30
27114;DHT22;14648;49.730;8.614;2023-02-08T05:48:29;-2.40;46.30
27114;DHT22;14648;49.730;8.614;2023-02-08T05:50:56;-2.40;46.30
27114;DHT22;14648;49.730;8.614;2023-02-08T05:53:22;-2.30;46.40
27114;DHT22;14648;49.730;8.614;2023-02-08T05:55:48;-2.30;46.40
27114;DHT22;14648;49.730;8.614;2023-02-08T05:58:14;-2.30;46.40
27114;DHT22;14648;49.730;8.614;2023-02-08T06:00:40;-2.30;46.40
27114;DHT22;14648;49.730;8.614;2023-02-08T06:03:06;-2.30;46.40
27114;DHT22;14648;49.730;8.614;2023-02-08T06:05:32;-2.40;46.30
27114;DHT22;14648;49.730;8.614;2023-02-08T06:07:58;-2.40;46.30
27114;DHT22;14648;49.730;8.614;2023-02-08T06:10:27;-2.40;46.30
27114;DHT22;14648;49.730;8.614;2023-02-08T06:12:53;-2.40;46.40
27114;DHT22;14648;49.730;8.614;2023-02-08T06:15:18;-2.40;46.40
27114;DHT22;14648;49.730;8.614;2023-02-08T06:17:45;-2.40;46.40
27114;DHT22;14648;49.730;8.614;2023-02-08T06:20:11;-2.40;46.40
27114;DHT22;14648;49.730;8.614;2023-02-08T06:22:37;-2.40;46.40
27114;DHT22;14648;49.730;8.614;2023-02-08T06:25:03;-2.50;46.40
27114;DHT22;14648;49.730;8.614;2023-02-08T06:27:28;-2.50;46.50
27114;DHT22;14648;49.730;8.614;2023-02-08T06:29:54;-2.50;46.60
27114;DHT22;14648;49.730;8.614;2023-02-08T06:32:20;-2.50;46.60
27114;DHT22;14648;49.730;8.614;2023-02-08T06:34:45;-2.50;46.50
27114;DHT22;14648;49.730;8.614;2023-02-08T06:37:12;-2.50;46.50
27114;DHT22;14648;49.730;8.614;2023-02-08T06:39:38;-2.50;46.40
27114;DHT22;14648;49.730;8.614;2023-02-08T06:42:04;-2.50;46.40
27114;DHT22;14648;49.730;8.614;2023-02-08T06:44:29;-2.50;46.50
27114;DHT22;14648;49.730;8.614;2023-02-08T06:46:55;-2.60;46.50
27114;DHT22;14648;49.730;8.614;2023-02-08T06:49:20;-2.60;46.50
27114;DHT22;14648;49.730;8.614;2023-02-08T06:51:46;-2.60;46.60
27114;DHT22;14648;49.730;8.614;2023-02-08T06:54:12;-2.60;46.70
27114;DHT22;14648;49.730;8.614;2023-02-08T06:56:37;-2.60;46.60
27114;DHT22;14648;49.730;8.614;2023-02-08T06:59:03;-2.50;46.80
27114;DHT22;14648;49.730;8.614;2023-02-08T07:01:28;-2.50;46.70
27114;DHT22;14648;49.730;8.614;2023-02-08T07:03:54;-2.50;46.70
27114;DHT22;14648;49.730;8.614;2023-02-08T07:06:20;-2.50;46.70
27114;DHT22;14648;49.730;8.614;2023-02-08T07:08:46;-2.50;46.70
27114;DHT22;14648;49.730;8.614;2023-02-08T07:11:17;-2.40;46.80
27114;DHT22;14648;49.730;8.614;2023-02-08T07:13:46;-2.40;46.80
27114;DHT22;14648;49.730;8.614;2023-02-08T07:16:13;-2.40;46.80
27114;DHT22;14648;49.730;8.614;2023-02-08T07:18:39;-2.40;46.80
27114;DHT22;14648;49.730;8.614;2023-02-08T07:21:05;-2.30;46.90
27114;DHT22;14648;49.730;8.614;2023-02-08T07:23:31;-2.30;46.90
27114;DHT22;14648;49.730;8.614;2023-02-08T07:26:05;-2.30;46.90
27114;DHT22;14648;49.730;8.614;2023-02-08T07:28:32;-2.30;46.90
27114;DHT22;14648;49.730;8.614;2023-02-08T07:30:58;-2.30;47.00
27114;DHT22;14648;49.730;8.614;2023-02-08T07:33:25;-2.20;46.90
27114;DHT22;14648;49.730;8.614;2023-02-08T07:35:51;-2.20;47.00
27114;DHT22;14648;49.730;8.614;2023-02-08T07:38:17;-2.20;46.90
27114;DHT22;14648;49.730;8.614;2023-02-08T07:40:45;-2.20;47.00
27114;DHT22;14648;49.730;8.614;2023-02-08T07:43:10;-2.20;47.10
27114;DHT22;14648;49.730;8.614;2023-02-08T07:45:37;-2.20;47.10
27114;DHT22;14648;49.730;8.614;2023-02-08T07:48:03;-2.20;47.10
27114;DHT22;14648;49.730;8.614;2023-02-08T07:50:28;-2.10;47.20
27114;DHT22;14648;49.730;8.614;2023-02-08T07:52:54;-2.10;47.20
27114;DHT22;14648;49.730;8.614;2023-02-08T07:55:20;-2.10;47.30
27114;DHT22;14648;49.730;8.614;2023-02-08T07:57:47;-2.10;47.30
27114;DHT22;14648;49.730;8.614;2023-02-08T08:00:15;-2.10;47.40
27114;DHT22;14648;49.730;8.614;2023-02-08T08:02:42;-2.10;47.30
27114;DHT22;14648;49.730;8.614;2023-02-08T08:05:09;-2.10;47.30
27114;DHT22;14648;49.730;8.614;2023-02-08T08:07:35;-2.10;47.30
27114;DHT22;14648;49.730;8.614;2023-02-08T08:10:02;-2.00;47.30
27114;DHT22;14648;49.730;8.614;2023-02-08T08:12:28;-2.00;47.30
27114;DHT22;14648;49.730;8.614;2023-02-08T08:14:54;-2.00;47.40
27114;DHT22;14648;49.730;8.614;2023-02-08T08:17:19;-2.00;47.40
27114;DHT22;14648;49.730;8.614;2023-02-08T08:19:48;-2.00;47.50
27114;DHT22;14648;49.730;8.614;2023-02-08T08:22:14;-2.00;47.50
27114;DHT22;14648;49.730;8.614;2023-02-08T08:24:39;-2.00;47.50
27114;DHT22;14648;49.730;8.614;2023-02-08T08:27:06;-2.00;47.50
27114;DHT22;14648;49.730;8.614;2023-02-08T08:29:34;-1.90;47.60
27114;DHT22;14648;49.730;8.614;2023-02-08T08:32:01;-1.90;47.70
27114;DHT22;14648;49.730;8.614;2023-02-08T08:34:29;-1.90;47.80
27114;DHT22;14648;49.730;8.614;2023-02-08T08:36:59;-2.00;47.70
27114;DHT22;14648;49.730;8.614;2023-02-08T08:39:29;-2.00;47.80
27114;DHT22;14648;49.730;8.614;2023-02-08T08:41:57;-1.90;47.90
27114;DHT22;14648;49.730;8.614;2023-02-08T08:44:24;-1.90;47.90
27114;DHT22;14648;49.730;8.614;2023-02-08T08:46:52;-1.90;47.90
27114;DHT22;14648;49.730;8.614;2023-02-08T08:49:19;-1.80;48.00
27114;DHT22;14648;49.730;8.614;2023-02-08T08:51:44;-1.70;48.20
27114;DHT22;14648;49.730;8.614;2023-02-08T08:54:10;-1.50;48.30
27114;DHT22;14648;49.730;8.614;2023-02-08T08:56:35;-1.40;48.40
27114;DHT22;14648;49.730;8.614;2023-02-08T08:59:01;-1.20;48.60
27114;DHT22;14648;49.730;8.614;2023-02-08T09:01:27;-0.90;48.90
27114;DHT22;14648;49.730;8.614;2023-02-08T09:03:52;-0.50;49.10
27114;DHT22;14648;49.730;8.614;2023-02-08T09:06:18;-0.30;49.10
27114;DHT22;14648;49.730;8.614;2023-02-08T09:08:44;0.00;49.40
27114;DHT22;14648;49.730;8.614;2023-02-08T09:11:14;0.30;49.60
27114;DHT22;14648;49.730;8.614;2023-02-08T09:13:40;0.60;49.70
27114;DHT22;14648;49.730;8.614;2023-02-08T09:16:15;0.80;50.00
27114;DHT22;14648;49.730;8.614;2023-02-08T09:18:43;1.10;50.30
27114;DHT22;14648;49.730;8.614;2023-02-08T09:21:15;1.30;50.60
27114;DHT22;14648;49.730;8.614;2023-02-08T09:23:42;1.70;50.60
27114;DHT22;14648;49.730;8.614;2023-02-08T09:26:11;2.10;50.70
27114;DHT22;14648;49.730;8.614;2023-02-08T09:28:41;2.40;50.60
27114;DHT22;14648;49.730;8.614;2023-02-08T09:31:29;2.80;50.50
27114;DHT22;14648;49.730;8.614;2023-02-08T09:33:59;3.20;50.10
27114;DHT22;14648;49.730;8.614;2023-02-08T09:36:27;3.50;50.20
27114;DHT22;14648;49.730;8.614;2023-02-08T09:38:57;3.80;51.00
27114;DHT22;14648;49.730;8.614;2023-02-08T09:50:02;4.90;50.10
27114;DHT22;14648;49.730;8.614;2023-02-08T09:58:04;6.00;49.90
27114;DHT22;14648;49.730;8.614;2023-02-08T10:00:43;6.20;49.20
27114;DHT22;14648;49.730;8.614;2023-02-08T10:03:31;6.30;49.00
27114;DHT22;14648;49.730;8.614;2023-02-08T10:06:01;6.50;48.50
27114;DHT22;14648;49.730;8.614;2023-02-08T10:08:28;6.80;49.00
27114;DHT22;14648;49.730;8.614;2023-02-08T10:11:11;7.00;48.60
27114;DHT22;14648;49.730;8.614;2023-02-08T10:20:17;7.70;46.80
27114;DHT22;14648;49.730;8.614;2023-02-08T10:26:51;8.10;46.20
27114;DHT22;14648;49.730;8.614;2023-02-08T10:35:36;8.80;45.30
27114;DHT22;14648;49.730;8.614;2023-02-08T10:38:21;9.00;45.60
27114;DHT22;14648;49.730;8.614;2023-02-08T10:40:57;9.20;44.90
27114;DHT22;14648;49.730;8.614;2023-02-08T10:51:34;9.80;42.60
27114;DHT22;14648;49.730;8.614;2023-02-08T10:54:00;9.80;42.40
27114;DHT22;14648;49.730;8.614;2023-02-08T10:58:56;10.00;41.20
27114;DHT22;14648;49.730;8.614;2023-02-08T11:01:24;10.10;41.10
27114;DHT22;14648;49.730;8.614;2023-02-08T11:04:10;10.20;40.10
27114;DHT22;14648;49.730;8.614;2023-02-08T11:06:39;10.20;38.40
27114;DHT22;14648;49.730;8.614;2023-02-08T11:09:11;10.10;37.90
27114;DHT22;14648;49.730;8.614;2023-02-08T11:11:48;10.00;37.50
27114;DHT22;14648;49.730;8.614;2023-02-08T11:14:24;10.00;37.30
27114;DHT22;14648;49.730;8.614;2023-02-08T11:16:52;10.10;37.80
27114;DHT22;14648;49.730;8.614;2023-02-08T11:19:33;10.20;36.90
27114;DHT22;14648;49.730;8.614;2023-02-08T11:22:01;10.30;35.90
27114;DHT22;14648;49.730;8.614;2023-02-08T11:24:36;10.30;35.90
27114;DHT22;14648;49.730;8.614;2023-02-08T11:32:40;10.00;33.90
27114;DHT22;14648;49.730;8.614;2023-02-08T11:35:26;10.00;34.40
27114;DHT22;14648;49.730;8.614;2023-02-08T11:37:57;10.00;34.10
27114;DHT22;14648;49.730;8.614;2023-02-08T11:40:36;9.90;33.60
27114;DHT22;14648;49.730;8.614;2023-02-08T11:43:24;9.90;33.10
27114;DHT22;14648;49.730;8.614;2023-02-08T11:45:52;9.90;33.80
27114;DHT22;14648;49.730;8.614;2023-02-08T11:48:27;9.90;33.60
27114;DHT22;14648;49.730;8.614;2023-02-08T11:51:01;9.90;33.30
27114;DHT22;14648;49.730;8.614;2023-02-08T11:53:34;9.90;32.90
27114;DHT22;14648;49.730;8.614;2023-02-08T11:56:12;9.90;32.50
27114;DHT22;14648;49.730;8.614;2023-02-08T12:01:37;9.80;32.20
27114;DHT22;14648;49.730;8.614;2023-02-08T12:04:11;9.80;32.50
27114;DHT22;14648;49.730;8.614;2023-02-08T12:07:12;9.90;32.10
27114;DHT22;14648;49.730;8.614;2023-02-08T12:10:10;10.00;31.90
27114;DHT22;14648;49.730;8.614;2023-02-08T12:13:01;10.10;31.60
27114;DHT22;14648;49.730;8.614;2023-02-08T12:16:29;10.10;31.70
27114;DHT22;14648;49.730;8.614;2023-02-08T12:21:37;10.30;31.80
27114;DHT22;14648;49.730;8.614;2023-02-08T12:24:29;10.40;31.90
27114;DHT22;14648;49.730;8.614;2023-02-08T12:27:15;10.50;31.50
27114;DHT22;14648;49.730;8.614;2023-02-08T12:38:40;10.40;31.00
27114;DHT22;14648;49.730;8.614;2023-02-08T12:41:56;10.50;31.20
27114;DHT22;14648;49.730;8.614;2023-02-08T12:47:30;10.70;31.00
27114;DHT22;14648;49.730;8.614;2023-02-08T12:53:29;10.90;31.10
27114;DHT22;14648;49.730;8.614;2023-02-08T12:56:02;11.20;31.10
27114;DHT22;14648;49.730;8.614;2023-02-08T12:58:44;11.50;31.50
27114;DHT22;14648;49.730;8.614;2023-02-08T13:01:20;11.60;30.70
27114;DHT22;14648;49.730;8.614;2023-02-08T13:03:53;11.60;30.30
27114;DHT22;14648;49.730;8.614;2023-02-08T13:06:25;11.60;30.40
27114;DHT22;14648;49.730;8.614;2023-02-08T13:09:02;11.60;30.70
27114;DHT22;14648;49.730;8.614;2023-02-08T13:11:41;11.70;30.70
27114;DHT22;14648;49.730;8.614;2023-02-08T13:14:30;11.80;30.70
27114;DHT22;14648;49.730;8.614;2023-02-08T13:17:23;11.90;30.60
27114;DHT22;14648;49.730;8.614;2023-02-08T13:19:55;12.10;30.20
27114;DHT22;14648;49.730;8.614;2023-02-08T13:22:23;12.10;30.40
27114;DHT22;14648;49.730;8.614;2023-02-08T13:24:50;12.20;30.20
27114;DHT22;14648;49.730;8.614;2023-02-08T13:27:19;12.20;30.00
27114;DHT22;14648;49.730;8.614;2023-02-08T13:29:49;12.40;29.90
27114;DHT22;14648;49.730;8.614;2023-02-08T13:32:34;12.40;30.00
27114;DHT22;14648;49.730;8.614;2023-02-08T13:35:20;12.40;29.90
27114;DHT22;14648;49.730;8.614;2023-02-08T13:37:53;12.50;29.50
27114;DHT22;14648;49.730;8.614;2023-02-08T13:40:26;12.50;29.60
27114;DHT22;14648;49.730;8.614;2023-02-08T13:43:33;12.40;29.40
27114;DHT22;14648;49.730;8.614;2023-02-08T13:45:50;12.40;29.20
27114;DHT22;14648;49.730;8.614;2023-02-08T13:48:17;12.30;29.20
27114;DHT22;14648;49.730;8.614;2023-02-08T13:54:03;12.40;29.10
27114;DHT22;14648;49.730;8.614;2023-02-08T13:56:45;12.50;28.90
27114;DHT22;14648;49.730;8.614;2023-02-08T13:59:40;12.40;28.10
27114;DHT22;14648;49.730;8.614;2023-02-08T14:04:52;12.10;28.20
27114;DHT22;14648;49.730;8.614;2023-02-08T14:07:27;12.00;28.30
27114;DHT22;14648;49.730;8.614;2023-02-08T14:10:20;12.00;28.40
27114;DHT22;14648;49.730;8.614;2023-02-08T14:13:01;12.00;28.50
27114;DHT22;14648;49.730;8.614;2023-02-08T14:15:35;12.00;28.60
27114;DHT22;14648;49.730;8.614;2023-02-08T14:18:23;11.90;28.50
27114;DHT22;14648;49.730;8.614;2023-02-08T14:21:00;11.90;28.30
27114;DHT22;14648;49.730;8.614;2023-02-08T14:23:30;11.90;28.40
27114;DHT22;14648;49.730;8.614;2023-02-08T14:26:01;11.80;28.50
27114;DHT22;14648;49.730;8.614;2023-02-08T14:28:36;11.80;28.20
27114;DHT22;14648;49.730;8.614;2023-02-08T14:31:06;11.70;28.00
27114;DHT22;14648;49.730;8.614;2023-02-08T14:33:39;11.60;27.90
27114;DHT22;14648;49.730;8.614;2023-02-08T14:36:31;11.50;28.00
27114;DHT22;14648;49.730;8.614;2023-02-08T14:39:26;11.40;27.80
27114;DHT22;14648;49.730;8.614;2023-02-08T14:45:35;11.30;28.40
27114;DHT22;14648;49.730;8.614;2023-02-08T14:48:13;11.30;27.90
27114;DHT22;14648;49.730;8.614;2023-02-08T14:56:30;11.10;27.90
27114;DHT22;14648;49.730;8.614;2023-02-08T14:59:07;11.00;27.70
27114;DHT22;14648;49.730;8.614;2023-02-08T15:01:42;10.80;28.20
27114;DHT22;14648;49.730;8.614;2023-02-08T15:04:11;10.60;27.60
27114;DHT22;14648;49.730;8.614;2023-02-08T15:09:21;10.40;27.60
27114;DHT22;14648;49.730;8.614;2023-02-08T15:12:03;10.20;27.50
27114;DHT22;14648;49.730;8.614;2023-02-08T15:14:33;10.10;27.70
27114;DHT22;14648;49.730;8.614;2023-02-08T15:17:00;10.00;27.80
27114;DHT22;14648;49.730;8.614;2023-02-08T15:19:28;9.90;27.80
27114;DHT22;14648;49.730;8.614;2023-02-08T15:22:34;9.90;27.70
27114;DHT22;14648;49.730;8.614;2023-02-08T15:25:34;9.80;27.50
27114;DHT22;14648;49.730;8.614;2023-02-08T15:28:17;9.70;27.60
27114;DHT22;14648;49.730;8.614;2023-02-08T15:30:45;9.50;27.60
27114;DHT22;14648;49.730;8.614;2023-02-08T15:33:18;9.30;27.70
27114;DHT22;14648;49.730;8.614;2023-02-08T15:35:56;9.20;27.50
27114;DHT22;14648;49.730;8.614;2023-02-08T15:38:25;9.00;27.40
27114;DHT22;14648;49.730;8.614;2023-02-08T15:41:13;8.90;27.30
27114;DHT22;14648;49.730;8.614;2023-02-08T15:43:41;8.70;27.30
27114;DHT22;14648;49.730;8.614;2023-02-08T15:46:25;8.50;27.40
27114;DHT22;14648;49.730;8.614;2023-02-08T15:48:52;8.40;27.40
27114;DHT22;14648;49.730;8.614;2023-02-08T15:51:20;8.20;27.40
27114;DHT22;14648;49.730;8.614;2023-02-08T15:53:50;8.10;27.60
27114;DHT22;14648;49.730;8.614;2023-02-08T15:56:20;7.90;27.70
27114;DHT22;14648;49.730;8.614;2023-02-08T15:58:52;7.70;27.80
27114;DHT22;14648;49.730;8.614;2023-02-08T16:01:20;7.60;27.90
27114;DHT22;14648;49.730;8.614;2023-02-08T16:03:54;7.40;28.00
27114;DHT22;14648;49.730;8.614;2023-02-08T16:06:31;7.30;28.20
27114;DHT22;14648;49.730;8.614;2023-02-08T16:09:02;7.10;28.20
27114;DHT22;14648;49.730;8.614;2023-02-08T16:11:33;7.00;28.30
27114;DHT22;14648;49.730;8.614;2023-02-08T16:14:02;6.80;28.50
27114;DHT22;14648;49.730;8.614;2023-02-08T16:19:01;6.50;28.70
27114;DHT22;14648;49.730;8.614;2023-02-08T16:21:36;6.40;28.80
27114;DHT22;14648;49.730;8.614;2023-02-08T16:29:29;6.00;29.00
27114;DHT22;14648;49.730;8.614;2023-02-08T16:34:58;5.70;29.20
27114;DHT22;14648;49.730;8.614;2023-02-08T16:37:28;5.60;29.20
27114;DHT22;14648;49.730;8.614;2023-02-08T16:42:37;5.40;29.50
27114;DHT22;14648;49.730;8.614;2023-02-08T16:45:12;5.30;29.70
27114;DHT22;14648;49.730;8.614;2023-02-08T16:47:55;5.10;29.50
27114;DHT22;14648;49.730;8.614;2023-02-08T16:50:23;5.10;29.70
27114;DHT22;14648;49.730;8.614;2023-02-08T16:53:01;4.90;29.80
27114;DHT22;14648;49.730;8.614;2023-02-08T16:55:31;4.80;29.90
27114;DHT22;14648;49.730;8.614;2023-02-08T16:57:58;4.70;30.00
27114;DHT22;14648;49.730;8.614;2023-02-08T17:02:56;4.50;30.30
27114;DHT22;14648;49.730;8.614;2023-02-08T17:05:25;4.40;30.30
27114;DHT22;14648;49.730;8.614;2023-02-08T17:07:53;4.30;30.50
27114;DHT22;14648;49.730;8.614;2023-02-08T17:10:30;4.20;30.60
27114;DHT22;14648;49.730;8.614;2023-02-08T17:12:58;4.00;30.80
27114;DHT22;14648;49.730;8.614;2023-02-08T17:15:25;3.80;30.90
27114;DHT22;14648;49.730;8.614;2023-02-08T17:17:52;3.70;31.10
27114;DHT22;14648;49.730;8.614;2023-02-08T17:20:30;3.70;31.30
27114;DHT22;14648;49.730;8.614;2023-02-08T17:22:58;3.50;31.60
27114;DHT22;14648;49.730;8.614;2023-02-08T17:25:26;3.40;31.50
27114;DHT22;14648;49.730;8.614;2023-02-08T17:27:55;3.30;31.80
27114;DHT22;14648;49.730;8.614;2023-02-08T17:30:36;3.20;31.90
27114;DHT22;14648;49.730;8.614;2023-02-08T17:33:04;3.10;32.20
27114;DHT22;14648;49.730;8.614;2023-02-08T17:35:34;3.00;35.70
27114;DHT22;14648;49.730;8.614;2023-02-08T17:38:02;2.90;34.00
27114;DHT22;14648;49.730;8.614;2023-02-08T17:40:31;2.80;33.80
27114;DHT22;14648;49.730;8.614;2023-02-08T17:42:58;2.80;33.80
27114;DHT22;14648;49.730;8.614;2023-02-08T17:45:25;2.70;33.80
27114;DHT22;14648;49.730;8.614;2023-02-08T17:47:52;2.70;33.90
27114;DHT22;14648;49.730;8.614;2023-02-08T17:50:19;2.60;33.90
27114;DHT22;14648;49.730;8.614;2023-02-08T17:52:46;2.50;33.90
27114;DHT22;14648;49.730;8.614;2023-02-08T17:55:13;2.50;34.00
27114;DHT22;14648;49.730;8.614;2023-02-08T17:57:41;2.40;33.90
27114;DHT22;14648;49.730;8.614;2023-02-08T18:00:10;2.40;34.00
27114;DHT22;14648;49.730;8.614;2023-02-08T18:02:43;2.30;34.00
27114;DHT22;14648;49.730;8.614;2023-02-08T18:05:12;2.20;34.00
27114;DHT22;14648;49.730;8.614;2023-02-08T18:07:39;2.20;34.10